Aviation Digital Data Service (ADDS)

Output produced by METARs form (1922 UTC 22 May 2019)
found at http://aviationweather.gov/metar/data/
 
METAR text: KARR 221852Z 17019G30KT 10SM CLR 25/16 A2983 RMK AO2 PK WND 17030/1844 SLP099 T02500161
Conditions at: KARR (CHICAGO/AURORA , IL, US) observed 1852 UTC 22 May 2019
Temperature: 25.0°C (77°F)
Dewpoint: 16.1°C (61°F) [RH = 58%]
Pressure (altimeter): 29.83 inches Hg (1010.2 mb)
[Sea-level pressure: 1009.9 mb]
Winds: from the S (170 degrees) at 22 MPH (19 knots; 9.8 m/s)
gusting to 34 MPH (30 knots; 15.4 m/s)
Visibility: 10 or more miles (16+ km)
Ceiling: at least 12,000 feet AGL
Clouds: sky clear below 12,000 feet AGL
Weather: no significant weather observed at this time